Time;durP1;ratioP1;P1;durP2;ratioP2;P2;SDS_P1;SDS_P2;PMS_P1;PMS_P2;Temp;Humidity;BMP_temperature;BMP_pressure;BME280_temperature;BME280_humidity;BME280_pressure;Samples;Min_cycle;Max_cycle;Signal;HPM_P1;HPM_P2
2023/04/26 00:01:18;;;;;;;8.63;3.42;;;6.10;99.90;;;;;;5115506;27;20165;-65
2023/04/26 00:03:45;;;;;;;6.80;3.75;;;6.10;99.90;;;;;;5115889;28;20093;-63
2023/04/26 00:06:13;;;;;;;8.75;3.75;;;6.10;99.90;;;;;;5115251;28;20036;-62
2023/04/26 00:08:41;;;;;;;10.07;3.72;;;6.00;99.90;;;;;;5115300;28;20457;-62
2023/04/26 00:11:07;;;;;;;7.68;3.25;;;6.00;99.90;;;;;;5115173;27;20089;-63
2023/04/26 00:13:35;;;;;;;9.13;3.50;;;6.00;99.90;;;;;;5115102;28;20050;-63
2023/04/26 00:16:02;;;;;;;13.73;3.70;;;5.90;99.90;;;;;;5115687;28;20040;-59
2023/04/26 00:18:30;;;;;;;11.05;3.97;;;5.80;99.90;;;;;;5115449;28;20113;-63
2023/04/26 00:20:57;;;;;;;9.88;4.03;;;5.80;99.90;;;;;;5115472;28;20447;-63
2023/04/26 00:23:23;;;;;;;10.50;4.45;;;5.80;99.90;;;;;;5115184;28;20378;-63
2023/04/26 00:25:50;;;;;;;8.35;4.03;;;5.70;99.90;;;;;;5113804;28;20395;-62
2023/04/26 00:28:17;;;;;;;10.85;5.00;;;5.70;99.90;;;;;;5113749;28;20032;-62
2023/04/26 00:30:47;;;;;;;10.15;4.05;;;5.70;99.90;;;;;;5115350;28;20031;-61
2023/04/26 00:33:14;;;;;;;9.13;3.83;;;5.70;99.90;;;;;;5113714;28;20047;-62
2023/04/26 00:35:41;;;;;;;8.07;3.75;;;5.60;99.90;;;;;;5115052;28;20431;-61
2023/04/26 00:38:08;;;;;;;7.75;3.55;;;5.60;99.90;;;;;;5113456;28;20040;-61
2023/04/26 00:40:35;;;;;;;9.23;3.67;;;5.60;99.90;;;;;;5114512;28;20152;-63
2023/04/26 00:43:02;;;;;;;10.90;3.97;;;5.60;99.90;;;;;;5114592;28;20039;-62
2023/04/26 00:45:28;;;;;;;12.25;4.43;;;5.60;99.90;;;;;;5113798;28;20040;-62
2023/04/26 00:47:56;;;;;;;11.77;4.25;;;5.60;99.90;;;;;;5114288;28;20059;-62
2023/04/26 00:50:23;;;;;;;8.75;3.97;;;5.60;99.90;;;;;;5114508;28;20040;-62
2023/04/26 00:52:49;;;;;;;7.82;3.67;;;5.60;99.90;;;;;;5114591;28;20047;-63
2023/04/26 00:55:16;;;;;;;10.77;3.97;;;5.50;99.90;;;;;;5114478;28;20118;-61
2023/04/26 00:57:43;;;;;;;8.02;3.60;;;5.50;99.90;;;;;;5113498;28;20100;-62
2023/04/26 01:00:10;;;;;;;10.02;3.55;;;5.50;99.90;;;;;;5114709;28;20062;-63
2023/04/26 01:02:37;;;;;;;9.50;4.03;;;5.50;99.90;;;;;;5113393;28;20035;-62
2023/04/26 01:05:05;;;;;;;7.53;3.92;;;5.50;99.90;;;;;;5114772;28;20091;-60
2023/04/26 01:07:32;;;;;;;7.90;3.88;;;5.50;99.90;;;;;;5114504;28;20047;-60
2023/04/26 01:10:03;;;;;;;10.90;3.78;;;5.40;99.90;;;;;;5114021;28;20081;-62
2023/04/26 01:12:30;;;;;;;10.98;4.18;;;5.40;99.90;;;;;;5114591;28;20043;-61
2023/04/26 01:14:57;;;;;;;10.63;3.78;;;5.40;99.90;;;;;;5114167;28;20047;-62
2023/04/26 01:17:24;;;;;;;10.07;3.92;;;5.40;99.90;;;;;;5114584;28;20097;-61
2023/04/26 01:19:51;;;;;;;10.57;3.92;;;5.40;99.90;;;;;;5114027;28;20057;-62
2023/04/26 01:22:18;;;;;;;12.60;4.05;;;5.40;99.90;;;;;;5114371;28;20040;-61
2023/04/26 01:24:45;;;;;;;13.07;4.13;;;5.50;99.90;;;;;;5114228;28;20067;-61
2023/04/26 01:27:11;;;;;;;9.55;4.07;;;5.50;99.90;;;;;;5112596;28;20493;-63
2023/04/26 01:29:39;;;;;;;12.52;3.88;;;5.50;99.90;;;;;;5112875;28;20134;-62
2023/04/26 01:32:06;;;;;;;8.98;4.88;;;5.50;99.90;;;;;;5114107;28;20066;-61
2023/04/26 01:34:33;;;;;;;11.70;4.13;;;5.50;99.90;;;;;;5112925;28;20048;-61
2023/04/26 01:37:00;;;;;;;10.35;4.40;;;5.50;99.90;;;;;;5112950;28;20051;-60
2023/04/26 01:39:27;;;;;;;13.45;4.38;;;5.50;99.90;;;;;;5114007;28;20052;-62
2023/04/26 01:41:53;;;;;;;10.52;4.43;;;5.50;99.90;;;;;;5114285;28;20044;-61
2023/04/26 01:44:20;;;;;;;12.77;4.13;;;5.50;99.90;;;;;;5114458;28;20039;-63
2023/04/26 01:46:47;;;;;;;8.02;4.45;;;5.50;99.90;;;;;;5114062;28;20046;-59
2023/04/26 01:49:14;;;;;;;12.20;4.32;;;5.50;99.90;;;;;;5112535;28;20032;-62
2023/04/26 01:51:41;;;;;;;10.00;3.83;;;5.50;99.90;;;;;;5113689;28;20047;-63
2023/04/26 01:54:07;;;;;;;8.18;3.70;;;5.40;99.90;;;;;;5112248;28;20040;-62
2023/04/26 01:56:34;;;;;;;12.90;3.97;;;5.40;99.90;;;;;;5112481;28;20109;-62
2023/04/26 01:59:01;;;;;;;10.25;3.88;;;5.40;99.90;;;;;;5113726;28;20359;-63
2023/04/26 02:01:29;;;;;;;10.50;4.05;;;5.40;99.90;;;;;;5114558;28;20131;-62
2023/04/26 02:03:55;;;;;;;10.68;4.30;;;5.30;99.90;;;;;;5116720;28;20035;-62
2023/04/26 02:06:22;;;;;;;7.15;4.18;;;5.30;99.90;;;;;;5118247;28;20427;-62
2023/04/26 02:08:50;;;;;;;9.63;4.38;;;5.30;99.90;;;;;;5118298;28;20050;-61
2023/04/26 02:11:17;;;;;;;11.88;3.90;;;5.30;99.90;;;;;;5117402;28;20057;-62
2023/04/26 02:13:44;;;;;;;10.38;4.22;;;5.30;99.90;;;;;;5117807;28;20067;-62
2023/04/26 02:16:11;;;;;;;8.07;3.90;;;5.30;99.90;;;;;;5117505;28;20140;-61
2023/04/26 02:18:37;;;;;;;11.43;4.05;;;5.30;99.90;;;;;;5116406;28;20558;-61
2023/04/26 02:21:04;;;;;;;10.05;3.60;;;5.30;99.90;;;;;;5116377;28;20040;-62
2023/04/26 02:23:31;;;;;;;7.55;3.97;;;5.30;99.90;;;;;;5117525;28;20058;-62
2023/04/26 02:25:58;;;;;;;8.95;4.13;;;5.30;99.90;;;;;;5116524;28;20833;-60
2023/04/26 02:28:25;;;;;;;9.25;3.67;;;5.40;99.90;;;;;;5117238;28;20036;-62
2023/04/26 02:30:55;;;;;;;12.57;3.88;;;5.40;99.90;;;;;;5116995;28;20424;-62
2023/04/26 02:33:22;;;;;;;12.88;4.20;;;5.40;99.90;;;;;;5116285;28;20517;-63
2023/04/26 02:35:50;;;;;;;7.07;3.75;;;5.40;99.90;;;;;;5116427;28;20487;-62
2023/04/26 02:38:17;;;;;;;8.85;3.95;;;5.40;99.90;;;;;;5116077;28;20051;-61
2023/04/26 02:40:44;;;;;;;10.23;4.05;;;5.40;99.90;;;;;;5115519;28;20452;-60
2023/04/26 02:43:12;;;;;;;6.85;3.83;;;5.40;99.90;;;;;;5115270;28;20039;-62
2023/04/26 02:45:39;;;;;;;9.13;3.38;;;5.40;99.90;;;;;;5115549;28;20371;-62
2023/04/26 02:48:06;;;;;;;9.10;3.85;;;5.40;99.90;;;;;;5115802;28;20074;-60
2023/04/26 02:50:32;;;;;;;9.55;3.88;;;5.50;99.90;;;;;;5116981;28;20402;-63
2023/04/26 02:53:00;;;;;;;11.27;3.53;;;5.50;99.90;;;;;;5115956;28;20390;-61
2023/04/26 02:55:27;;;;;;;9.88;3.65;;;5.50;99.90;;;;;;5106576;28;20040;-62
2023/04/26 02:57:54;;;;;;;8.43;3.70;;;5.50;99.90;;;;;;5094924;28;20113;-62
2023/04/26 03:00:23;;;;;;;9.02;3.85;;;5.50;99.90;;;;;;5094989;28;20417;-63
2023/04/26 03:02:50;;;;;;;9.30;3.72;;;5.50;99.90;;;;;;5096012;28;20036;-63
2023/04/26 03:05:18;;;;;;;11.85;3.85;;;5.50;99.90;;;;;;5096020;28;20047;-64
2023/04/26 03:07:45;;;;;;;12.40;4.63;;;5.60;99.90;;;;;;5094752;28;20046;-60
2023/04/26 03:10:12;;;;;;;11.10;3.53;;;5.50;99.90;;;;;;5094802;28;20540;-62
2023/04/26 03:12:40;;;;;;;6.88;3.13;;;5.60;99.90;;;;;;5094395;28;20055;-62
2023/04/26 03:15:07;;;;;;;11.13;3.50;;;5.60;99.90;;;;;;5095253;28;20036;-62
2023/04/26 03:17:33;;;;;;;8.45;3.42;;;5.60;99.90;;;;;;5094498;28;20062;-63
2023/04/26 03:20:03;;;;;;;6.35;3.35;;;5.60;99.90;;;;;;5095146;28;20048;-62
2023/04/26 03:22:30;;;;;;;6.80;3.13;;;5.60;99.90;;;;;;5094339;28;20491;-62
2023/04/26 03:24:56;;;;;;;11.02;3.20;;;5.60;99.90;;;;;;5094998;28;20036;-62
2023/04/26 03:27:25;;;;;;;8.63;2.95;;;5.70;99.90;;;;;;5094465;28;20047;-63
2023/04/26 03:29:53;;;;;;;6.82;3.00;;;5.70;99.90;;;;;;5094755;28;20085;-60
2023/04/26 03:32:20;;;;;;;9.70;3.17;;;5.70;99.90;;;;;;5096252;28;20127;-63
2023/04/26 03:34:48;;;;;;;10.25;2.63;;;5.70;99.90;;;;;;5094847;28;20063;-61
2023/04/26 03:37:15;;;;;;;7.38;2.72;;;5.70;99.90;;;;;;5094187;28;20434;-62
2023/04/26 03:39:46;;;;;;;6.82;2.80;;;5.70;99.90;;;;;;5094599;28;20036;-62
2023/04/26 03:42:13;;;;;;;7.15;2.47;;;5.80;99.90;;;;;;5094132;28;20044;-63
2023/04/26 03:44:40;;;;;;;11.80;2.65;;;5.80;99.90;;;;;;5096098;28;20050;-63
2023/04/26 03:47:07;;;;;;;8.32;2.38;;;5.80;99.90;;;;;;5094619;28;20064;-63
2023/04/26 03:49:33;;;;;;;8.60;2.63;;;5.80;99.90;;;;;;5094254;28;20032;-63
2023/04/26 03:52:00;;;;;;;6.78;2.35;;;5.80;99.90;;;;;;5094074;28;20083;-61
2023/04/26 03:54:27;;;;;;;6.93;2.70;;;5.80;99.90;;;;;;5094134;28;20055;-63
2023/04/26 03:56:54;;;;;;;7.80;2.55;;;5.80;99.90;;;;;;5094208;28;20074;-61
2023/04/26 03:59:20;;;;;;;6.18;2.50;;;5.80;99.90;;;;;;5094098;28;20052;-63
2023/04/26 04:01:47;;;;;;;9.02;2.55;;;5.90;99.90;;;;;;5093790;28;20044;-62
2023/04/26 04:04:14;;;;;;;5.55;2.50;;;5.80;99.90;;;;;;5093982;28;20075;-61
2023/04/26 04:06:42;;;;;;;8.65;2.67;;;5.90;99.90;;;;;;5093559;28;20048;-63
2023/04/26 04:09:10;;;;;;;9.18;2.80;;;5.90;99.90;;;;;;5093955;28;20040;-62
2023/04/26 04:11:37;;;;;;;8.63;3.00;;;5.90;99.90;;;;;;5093428;28;20487;-61
2023/04/26 04:14:04;;;;;;;8.43;2.60;;;5.80;99.90;;;;;;5095039;28;20040;-62
2023/04/26 04:16:30;;;;;;;6.35;2.72;;;5.80;99.90;;;;;;5094652;28;20052;-62
2023/04/26 04:18:57;;;;;;;6.32;2.45;;;5.80;99.90;;;;;;5093841;28;20097;-63
2023/04/26 04:21:24;;;;;;;9.50;2.70;;;5.80;99.90;;;;;;5093278;28;20036;-60
2023/04/26 04:23:52;;;;;;;8.40;2.67;;;5.80;99.90;;;;;;5092901;28;20039;-61
2023/04/26 04:26:19;;;;;;;5.80;2.50;;;5.80;99.90;;;;;;5093771;28;20036;-61
2023/04/26 04:28:47;;;;;;;7.25;2.75;;;5.80;99.90;;;;;;5093385;28;20085;-61
2023/04/26 04:31:16;;;;;;;8.13;2.75;;;5.70;99.90;;;;;;5093087;28;20094;-64
2023/04/26 04:33:43;;;;;;;9.48;3.00;;;5.70;99.90;;;;;;5093416;28;20050;-62
2023/04/26 04:36:10;;;;;;;9.68;2.92;;;5.70;99.90;;;;;;5093344;28;20048;-62
2023/04/26 04:38:37;;;;;;;12.02;3.95;;;5.70;99.90;;;;;;5093428;28;20051;-63
2023/04/26 04:41:07;;;;;;;8.50;2.85;;;5.70;99.90;;;;;;5093027;28;20410;-62
2023/04/26 04:43:34;;;;;;;8.23;2.92;;;5.70;99.90;;;;;;5093349;28;20040;-63
2023/04/26 04:46:01;;;;;;;7.82;3.83;;;5.70;99.90;;;;;;5092866;28;20043;-60
2023/04/26 04:48:28;;;;;;;9.38;2.85;;;5.70;99.90;;;;;;5094341;28;20078;-63
2023/04/26 04:50:55;;;;;;;8.30;3.03;;;5.70;99.90;;;;;;5092708;28;20151;-62
2023/04/26 04:53:22;;;;;;;9.40;3.05;;;5.80;99.90;;;;;;5093030;28;20044;-61
2023/04/26 04:55:49;;;;;;;7.28;2.70;;;5.70;99.90;;;;;;5094680;28;20063;-61
2023/04/26 04:58:17;;;;;;;8.40;3.00;;;5.80;99.90;;;;;;5092604;28;20052;-62
2023/04/26 05:00:45;;;;;;;9.45;3.10;;;5.80;99.90;;;;;;5091885;28;20067;-62
2023/04/26 05:03:20;;;;;;;7.00;3.13;;;5.80;99.90;;;;;;5092195;28;20059;-60
2023/04/26 05:05:47;;;;;;;8.43;3.10;;;5.80;99.90;;;;;;5092304;28;20058;-63
2023/04/26 05:08:14;;;;;;;7.82;2.90;;;5.80;99.90;;;;;;5092614;28;20036;-63
2023/04/26 05:10:41;;;;;;;9.52;3.05;;;5.90;99.90;;;;;;5092472;28;20047;-62
2023/04/26 05:13:08;;;;;;;9.60;3.10;;;5.90;99.90;;;;;;5091987;28;20063;-62
2023/04/26 05:15:35;;;;;;;8.45;3.17;;;5.90;99.90;;;;;;5091931;28;20043;-63
2023/04/26 05:18:02;;;;;;;16.33;4.05;;;5.90;99.90;;;;;;5092125;28;20105;-64
2023/04/26 05:20:30;;;;;;;9.43;3.00;;;5.90;99.90;;;;;;5093347;28;20491;-62
2023/04/26 05:22:56;;;;;;;7.78;3.15;;;6.00;99.90;;;;;;5092238;28;20063;-62
2023/04/26 05:25:24;;;;;;;9.57;2.78;;;6.00;99.90;;;;;;5092276;28;20040;-62
2023/04/26 05:27:57;;;;;;;11.93;4.30;;;6.00;99.90;;;;;;5092024;28;20548;-63
2023/04/26 05:30:39;;;;;;;9.93;2.72;;;6.00;99.90;;;;;;5091685;28;20063;-60
2023/04/26 05:33:24;;;;;;;;;;;6.00;99.90;;;;;;5091909;28;20040;-62
2023/04/26 05:36:05;;;;;;;10.40;2.80;;;6.10;99.90;;;;;;5091004;28;19920;-60
2023/04/26 05:38:32;;;;;;;8.55;2.65;;;6.10;99.90;;;;;;5092842;28;20108;-59
2023/04/26 05:40:59;;;;;;;7.93;2.92;;;6.20;99.90;;;;;;5091603;28;20097;-60
2023/04/26 05:43:26;;;;;;;10.88;3.50;;;6.20;99.90;;;;;;5091760;28;20052;-61
2023/04/26 05:45:53;;;;;;;8.00;2.40;;;6.20;99.90;;;;;;5092549;28;20111;-62
2023/04/26 05:48:21;;;;;;;9.48;3.00;;;6.30;99.90;;;;;;5092265;28;20093;-59
2023/04/26 05:50:47;;;;;;;8.48;3.00;;;6.30;99.90;;;;;;5091666;28;20040;-62
2023/04/26 05:53:14;;;;;;;8.13;3.10;;;6.40;99.90;;;;;;5091266;28;20052;-62
2023/04/26 05:55:41;;;;;;;6.07;2.90;;;6.40;99.90;;;;;;5091560;28;20131;-60
2023/04/26 05:58:08;;;;;;;6.33;2.90;;;6.50;99.90;;;;;;5049325;28;1188823;-61
2023/04/26 06:00:35;;;;;;;8.32;2.55;;;6.50;99.90;;;;;;5092631;28;20510;-62
2023/04/26 06:03:02;;;;;;;9.93;2.80;;;6.60;99.90;;;;;;5092548;28;20070;-60
2023/04/26 06:05:29;;;;;;;9.43;3.00;;;6.60;99.90;;;;;;5093951;28;20040;-62
2023/04/26 06:07:56;;;;;;;9.38;3.08;;;6.70;99.90;;;;;;5093618;28;20032;-63
2023/04/26 06:10:23;;;;;;;12.80;3.20;;;6.70;99.90;;;;;;5093139;28;20082;-62
2023/04/26 06:12:50;;;;;;;8.80;2.97;;;6.80;99.90;;;;;;5092099;28;20054;-61
2023/04/26 06:15:18;;;;;;;8.95;2.60;;;6.90;99.90;;;;;;5092460;28;20066;-62
2023/04/26 06:17:45;;;;;;;11.13;3.03;;;6.90;99.90;;;;;;5091769;28;20159;-63
2023/04/26 06:20:11;;;;;;;11.43;2.80;;;7.00;99.90;;;;;;5092077;28;20047;-61
2023/04/26 06:22:38;;;;;;;9.38;2.60;;;7.00;99.90;;;;;;5093157;28;20032;-63
2023/04/26 06:25:06;;;;;;;8.80;2.88;;;7.10;99.90;;;;;;5091980;28;20046;-63
2023/04/26 06:27:35;;;;;;;10.48;2.53;;;7.10;99.90;;;;;;5092342;28;20064;-62
2023/04/26 06:30:02;;;;;;;11.73;2.53;;;7.20;99.90;;;;;;5092103;28;20426;-62
2023/04/26 06:32:31;;;;;;;10.00;2.40;;;7.20;99.90;;;;;;5091936;28;20496;-63
2023/04/26 06:34:58;;;;;;;7.35;2.10;;;7.30;99.90;;;;;;5092072;28;20040;-61
2023/04/26 06:37:25;;;;;;;8.63;2.30;;;7.30;99.90;;;;;;5091682;28;20449;-60
2023/04/26 06:39:51;;;;;;;7.90;2.42;;;7.40;99.90;;;;;;5092938;28;20092;-62
2023/04/26 06:42:19;;;;;;;7.93;2.55;;;7.40;99.90;;;;;;5092512;28;20040;-62
2023/04/26 06:44:59;;;;;;;9.77;2.50;;;7.50;99.90;;;;;;5092176;28;20093;-61
2023/04/26 06:47:26;;;;;;;10.45;2.30;;;7.60;99.90;;;;;;5093537;28;20047;-62
2023/04/26 06:49:54;;;;;;;5.30;2.17;;;7.60;99.90;;;;;;5095258;28;20040;-62
2023/04/26 06:52:20;;;;;;;6.93;2.28;;;7.70;99.90;;;;;;5096256;28;20398;-63
2023/04/26 06:54:47;;;;;;;8.60;3.10;;;7.70;99.90;;;;;;5096948;28;20039;-62
2023/04/26 06:57:22;;;;;;;6.25;2.50;;;7.70;99.90;;;;;;5096645;28;20036;-62
2023/04/26 06:59:50;;;;;;;9.30;2.35;;;7.80;99.90;;;;;;5095866;28;20052;-63
2023/04/26 07:02:17;;;;;;;8.90;2.70;;;7.90;99.90;;;;;;5096373;28;20044;-60
2023/04/26 07:04:44;;;;;;;14.35;4.93;;;7.90;99.90;;;;;;5096383;28;20060;-60
2023/04/26 07:07:11;;;;;;;6.50;2.70;;;7.90;99.90;;;;;;5096256;28;20036;-62
2023/04/26 07:09:39;;;;;;;9.32;2.42;;;8.00;99.90;;;;;;5096261;28;20457;-61
2023/04/26 07:12:06;;;;;;;6.97;2.60;;;8.10;99.90;;;;;;5096365;28;20533;-63
2023/04/26 07:14:34;;;;;;;42.15;5.15;;;8.20;99.90;;;;;;5096263;28;20092;-62
2023/04/26 07:17:04;;;;;;;8.50;2.42;;;8.20;99.90;;;;;;5095145;28;20040;-61
2023/04/26 07:19:30;;;;;;;12.63;2.80;;;8.40;99.90;;;;;;5094809;28;20070;-62
2023/04/26 07:21:57;;;;;;;11.95;2.55;;;8.50;99.90;;;;;;5095340;28;20040;-63
2023/04/26 07:24:24;;;;;;;81.20;5.82;;;8.50;99.90;;;;;;5095091;28;20036;-62
2023/04/26 07:26:51;;;;;;;10.82;2.63;;;8.60;99.90;;;;;;5095435;28;20441;-63
2023/04/26 07:29:18;;;;;;;12.80;2.97;;;8.60;99.90;;;;;;5095326;28;20040;-61
2023/04/26 07:31:44;;;;;;;8.02;2.67;;;8.60;99.90;;;;;;5094818;28;20039;-60
2023/04/26 07:34:11;;;;;;;9.77;2.40;;;8.80;99.90;;;;;;5094396;28;20453;-61
2023/04/26 07:36:38;;;;;;;12.55;4.53;;;8.80;99.90;;;;;;5094343;28;20047;-63
2023/04/26 07:39:05;;;;;;;9.88;2.83;;;8.90;99.90;;;;;;5094553;28;20425;-62
2023/04/26 07:41:32;;;;;;;7.70;2.50;;;8.90;99.90;;;;;;5094284;28;20040;-63
2023/04/26 07:43:59;;;;;;;9.60;3.03;;;9.00;99.90;;;;;;5094056;28;20105;-61
2023/04/26 07:46:25;;;;;;;9.85;2.58;;;9.00;99.90;;;;;;5094070;28;20040;-63
2023/04/26 07:48:52;;;;;;;9.95;2.95;;;9.10;99.90;;;;;;5095122;28;20085;-62
2023/04/26 07:51:19;;;;;;;12.32;3.05;;;9.10;99.90;;;;;;5095611;28;20040;-63
2023/04/26 07:53:46;;;;;;;7.63;2.65;;;9.10;99.90;;;;;;5095043;28;20094;-64
2023/04/26 07:56:14;;;;;;;9.27;2.65;;;9.10;99.90;;;;;;5095068;28;20071;-63
2023/04/26 07:58:41;;;;;;;12.68;2.63;;;9.10;99.90;;;;;;5093956;28;20047;-64
2023/04/26 08:01:10;;;;;;;13.25;2.47;;;9.10;99.90;;;;;;5095519;28;20040;-61
2023/04/26 08:03:37;;;;;;;10.60;3.45;;;9.00;99.90;;;;;;5095079;28;20040;-63
2023/04/26 08:06:04;;;;;;;10.52;2.90;;;9.00;99.90;;;;;;5094924;28;20043;-63
2023/04/26 08:08:32;;;;;;;15.35;2.63;;;8.90;99.90;;;;;;5093566;28;20032;-62
2023/04/26 08:10:59;;;;;;;9.63;2.70;;;8.90;99.90;;;;;;5094633;28;20089;-63
2023/04/26 08:13:26;;;;;;;11.88;3.10;;;8.80;99.90;;;;;;5095344;28;20119;-62
2023/04/26 08:15:55;;;;;;;14.77;3.58;;;8.80;99.90;;;;;;5095178;28;20040;-64
2023/04/26 08:18:22;;;;;;;12.40;2.78;;;8.80;99.90;;;;;;5095220;28;20047;-62
2023/04/26 08:20:48;;;;;;;7.10;2.70;;;8.70;99.90;;;;;;5094753;28;20044;-64
2023/04/26 08:23:15;;;;;;;9.27;2.67;;;8.70;99.90;;;;;;5095021;28;20584;-64
2023/04/26 08:25:42;;;;;;;11.65;3.10;;;8.70;99.90;;;;;;5094682;28;20097;-60
2023/04/26 08:28:09;;;;;;;15.73;3.28;;;8.60;99.90;;;;;;5094685;28;20046;-62
2023/04/26 08:30:35;;;;;;;7.47;3.08;;;8.70;99.90;;;;;;5094385;28;20043;-61
2023/04/26 08:33:02;;;;;;;8.70;3.17;;;8.70;99.90;;;;;;5095123;28;20110;-62
2023/04/26 08:35:32;;;;;;;10.52;3.22;;;8.70;99.90;;;;;;5093606;28;20051;-62
2023/04/26 08:37:58;;;;;;;10.15;3.22;;;8.70;99.90;;;;;;5094777;28;20134;-63
2023/04/26 08:40:25;;;;;;;8.45;2.75;;;8.70;99.90;;;;;;5094426;28;20050;-63
2023/04/26 08:42:52;;;;;;;6.85;2.90;;;8.70;99.90;;;;;;5093766;28;20373;-63
2023/04/26 08:45:19;;;;;;;8.48;3.00;;;8.70;99.90;;;;;;5094214;28;20036;-62
2023/04/26 08:47:46;;;;;;;8.80;2.78;;;8.80;99.90;;;;;;5093770;28;20032;-62
2023/04/26 08:50:13;;;;;;;8.45;2.75;;;8.80;99.90;;;;;;5094683;28;20440;-62
2023/04/26 08:52:40;;;;;;;206.30;12.88;;;8.80;99.90;;;;;;5094206;28;20097;-63
2023/04/26 08:55:08;;;;;;;30.25;4.25;;;8.90;99.90;;;;;;5094733;28;20378;-61
2023/04/26 08:57:34;;;;;;;34.88;3.90;;;8.80;99.90;;;;;;5094303;28;20504;-63
2023/04/26 09:00:04;;;;;;;10.10;2.90;;;8.80;99.90;;;;;;5092607;28;20217;-62
2023/04/26 09:02:31;;;;;;;7.05;2.92;;;8.80;99.90;;;;;;5094283;28;20039;-62
2023/04/26 09:04:58;;;;;;;11.48;2.72;;;8.80;99.90;;;;;;5093894;28;20502;-62
2023/04/26 09:07:25;;;;;;;6.13;2.70;;;8.90;99.90;;;;;;5094332;28;20040;-64
2023/04/26 09:09:51;;;;;;;9.82;3.10;;;8.90;99.90;;;;;;5092290;28;20495;-62
2023/04/26 09:12:21;;;;;;;7.35;2.90;;;8.90;99.90;;;;;;5094540;28;20036;-64
2023/04/26 09:14:48;;;;;;;12.13;3.15;;;8.90;99.90;;;;;;5094306;28;20054;-63
2023/04/26 09:17:15;;;;;;;9.85;2.92;;;8.90;99.90;;;;;;5093756;28;20051;-63
2023/04/26 09:19:41;;;;;;;28.23;3.70;;;8.90;99.90;;;;;;5094043;28;20051;-62
2023/04/26 09:22:08;;;;;;;7.13;2.83;;;8.90;99.90;;;;;;5093821;28;20093;-61
2023/04/26 09:24:35;;;;;;;15.32;3.45;;;8.90;99.90;;;;;;5093803;28;20040;-63
2023/04/26 09:27:02;;;;;;;9.13;3.60;;;8.90;99.90;;;;;;5093894;28;20040;-62
2023/04/26 09:29:28;;;;;;;16.08;3.10;;;8.90;99.90;;;;;;5093595;28;20036;-63
2023/04/26 09:31:57;;;;;;;14.68;3.97;;;9.00;99.90;;;;;;5093571;28;20036;-61
2023/04/26 09:34:23;;;;;;;13.45;3.42;;;9.10;99.90;;;;;;5093761;28;20047;-62
2023/04/26 09:36:50;;;;;;;11.98;3.40;;;9.10;99.90;;;;;;5092663;28;20056;-62
2023/04/26 09:39:17;;;;;;;14.27;3.50;;;9.20;99.90;;;;;;5093858;28;20044;-63
2023/04/26 09:41:44;;;;;;;13.73;3.63;;;9.30;99.90;;;;;;5093995;28;20674;-61
2023/04/26 09:44:11;;;;;;;23.77;3.33;;;9.40;99.90;;;;;;5093386;28;20062;-63
2023/04/26 09:46:39;;;;;;;13.20;3.22;;;9.50;99.90;;;;;;5093611;28;20119;-59
2023/04/26 09:49:06;;;;;;;10.32;3.53;;;9.50;99.90;;;;;;5093954;28;20032;-62
2023/04/26 09:51:33;;;;;;;12.82;3.30;;;9.60;99.90;;;;;;5093690;28;20044;-62
2023/04/26 09:54:00;;;;;;;13.20;3.15;;;9.70;99.80;;;;;;5093371;28;20455;-63
2023/04/26 09:56:27;;;;;;;8.77;3.33;;;9.80;99.90;;;;;;5092393;28;20105;-62
2023/04/26 09:58:56;;;;;;;10.40;4.00;;;10.00;99.60;;;;;;5093345;28;20510;-62
2023/04/26 10:01:23;;;;;;;9.50;2.90;;;10.10;99.20;;;;;;5093824;28;20048;-62
2023/04/26 10:03:50;;;;;;;7.60;2.75;;;10.30;99.00;;;;;;5093859;28;20036;-61
2023/04/26 10:06:17;;;;;;;11.23;3.20;;;10.50;98.70;;;;;;5093409;28;20475;-63
2023/04/26 10:08:44;;;;;;;12.32;3.13;;;10.70;98.50;;;;;;5092608;28;20344;-63
2023/04/26 10:11:11;;;;;;;8.98;2.90;;;10.80;98.00;;;;;;5093291;28;20032;-62
2023/04/26 10:13:38;;;;;;;7.45;2.50;;;11.00;97.50;;;;;;5093472;28;20044;-64
2023/04/26 10:16:05;;;;;;;6.70;2.50;;;11.20;97.50;;;;;;5093547;28;20430;-64
2023/04/26 10:18:32;;;;;;;5.55;2.58;;;11.30;96.20;;;;;;5093320;28;20055;-63
2023/04/26 10:20:59;;;;;;;8.25;2.70;;;11.40;96.20;;;;;;5093169;28;20044;-62
2023/04/26 10:23:26;;;;;;;5.90;2.33;;;11.50;95.40;;;;;;5096944;28;20064;-63
2023/04/26 10:25:52;;;;;;;5.88;2.28;;;11.50;94.80;;;;;;5097076;28;20040;-62
2023/04/26 10:28:19;;;;;;;5.85;2.25;;;11.60;95.20;;;;;;5096950;28;20089;-62
2023/04/26 10:30:46;;;;;;;7.35;2.92;;;11.70;95.60;;;;;;5097312;28;20063;-65
2023/04/26 10:33:13;;;;;;;10.30;3.03;;;11.80;95.00;;;;;;5095585;28;20068;-64
2023/04/26 10:35:39;;;;;;;6.88;2.75;;;12.00;95.00;;;;;;5095810;28;20052;-64
2023/04/26 10:38:06;;;;;;;9.52;2.80;;;12.00;94.60;;;;;;5096834;28;20117;-64
2023/04/26 10:40:33;;;;;;;7.90;3.10;;;12.20;94.30;;;;;;5095466;28;20063;-62
2023/04/26 10:43:00;;;;;;;8.75;2.35;;;12.10;93.10;;;;;;5096983;28;20467;-63
2023/04/26 10:45:26;;;;;;;5.35;2.35;;;12.20;93.90;;;;;;5095405;28;20134;-63
2023/04/26 10:47:53;;;;;;;11.23;3.00;;;12.30;93.20;;;;;;5096809;28;20074;-64
2023/04/26 10:50:20;;;;;;;7.75;2.97;;;12.40;93.40;;;;;;5096456;28;20044;-64
2023/04/26 10:52:47;;;;;;;7.60;2.75;;;12.40;92.80;;;;;;5096813;28;20053;-62
2023/04/26 10:55:14;;;;;;;12.27;2.60;;;12.40;92.60;;;;;;5096690;28;20116;-63
2023/04/26 10:57:40;;;;;;;6.13;2.58;;;12.40;92.10;;;;;;5096809;28;20422;-64
2023/04/26 11:00:13;;;;;;;9.82;3.00;;;12.30;92.70;;;;;;5096703;28;20052;-64
2023/04/26 11:02:40;;;;;;;9.10;2.90;;;12.20;92.70;;;;;;5096857;28;20051;-62
2023/04/26 11:05:07;;;;;;;6.18;2.40;;;12.20;93.00;;;;;;5096663;28;20060;-64
2023/04/26 11:07:33;;;;;;;7.68;2.90;;;12.10;92.30;;;;;;5096636;28;20043;-63
2023/04/26 11:10:00;;;;;;;7.68;2.88;;;12.20;92.40;;;;;;5096125;28;20127;-64
2023/04/26 11:12:27;;;;;;;8.60;2.60;;;12.20;91.90;;;;;;5096211;28;20040;-63
2023/04/26 11:14:54;;;;;;;7.57;2.63;;;12.20;91.80;;;;;;5096002;28;20039;-64
2023/04/26 11:17:21;;;;;;;7.38;2.50;;;12.30;91.20;;;;;;5095013;28;20050;-64
2023/04/26 11:19:48;;;;;;;10.30;2.75;;;12.30;91.10;;;;;;5096225;28;20062;-64
2023/04/26 11:22:15;;;;;;;11.40;2.65;;;12.40;91.20;;;;;;5096297;28;20044;-64
2023/04/26 11:24:41;;;;;;;8.00;2.40;;;12.40;90.50;;;;;;5095929;28;20036;-64
2023/04/26 11:27:09;;;;;;;10.98;2.45;;;12.50;90.80;;;;;;5096156;28;20043;-62
2023/04/26 11:29:35;;;;;;;7.43;2.35;;;12.60;90.20;;;;;;5096272;28;20068;-62
2023/04/26 11:32:02;;;;;;;7.07;2.58;;;12.70;90.10;;;;;;5096180;28;20040;-62
2023/04/26 11:34:29;;;;;;;7.43;2.40;;;12.80;90.20;;;;;;5096060;28;20087;-62
2023/04/26 11:36:56;;;;;;;7.93;2.67;;;12.90;90.60;;;;;;5095845;28;20051;-63
2023/04/26 11:39:22;;;;;;;8.60;2.72;;;13.00;90.20;;;;;;5095779;28;20067;-62
2023/04/26 11:41:49;;;;;;;6.40;2.80;;;13.10;90.00;;;;;;5096030;28;20487;-62
2023/04/26 11:44:16;;;;;;;11.40;2.63;;;13.20;89.70;;;;;;5096524;28;20459;-65
2023/04/26 11:46:42;;;;;;;9.70;2.10;;;13.20;88.40;;;;;;5095310;28;20048;-65
2023/04/26 11:49:09;;;;;;;6.55;2.28;;;13.20;89.10;;;;;;5095266;28;20047;-62
2023/04/26 11:51:36;;;;;;;7.65;2.33;;;13.30;86.90;;;;;;5095740;28;20040;-63
2023/04/26 11:54:04;;;;;;;6.53;2.20;;;13.40;87.80;;;;;;5095286;28;20040;-62
2023/04/26 11:56:30;;;;;;;7.45;2.10;;;13.40;86.70;;;;;;5095694;28;20447;-62
2023/04/26 11:58:58;;;;;;;9.00;2.72;;;13.30;87.70;;;;;;5095061;28;20117;-62
2023/04/26 12:01:25;;;;;;;5.60;2.20;;;13.40;86.90;;;;;;5095205;28;20032;-64
2023/04/26 12:03:52;;;;;;;6.07;2.20;;;13.40;87.10;;;;;;5095025;28;20070;-63
2023/04/26 12:06:19;;;;;;;8.70;2.15;;;13.40;87.00;;;;;;5095268;28;20050;-62
2023/04/26 12:08:46;;;;;;;5.03;2.42;;;13.50;87.60;;;;;;5095010;28;20047;-64
2023/04/26 12:11:13;;;;;;;17.70;10.80;;;13.50;86.70;;;;;;5093525;28;20044;-62
2023/04/26 12:13:40;;;;;;;6.15;2.42;;;13.60;88.40;;;;;;5093730;28;20123;-62
2023/04/26 12:16:06;;;;;;;5.32;2.35;;;13.50;86.30;;;;;;5095457;28;20127;-64
2023/04/26 12:18:51;;;;;;;8.07;3.28;;;13.50;85.70;;;;;;5094877;28;20047;-62
2023/04/26 12:21:18;;;;;;;6.43;2.50;;;13.60;86.40;;;;;;5093857;28;20048;-62
2023/04/26 12:23:46;;;;;;;7.70;2.58;;;13.70;86.70;;;;;;5093886;28;20036;-63
2023/04/26 12:26:13;;;;;;;9.00;2.80;;;13.70;87.80;;;;;;5094581;28;20040;-63
2023/04/26 12:28:40;;;;;;;8.32;2.92;;;13.90;87.20;;;;;;5094714;28;20062;-63
2023/04/26 12:31:07;;;;;;;11.20;2.50;;;13.90;86.20;;;;;;5094817;28;20471;-63
2023/04/26 12:33:34;;;;;;;6.97;2.47;;;14.00;86.10;;;;;;5094568;28;20398;-62
2023/04/26 12:36:01;;;;;;;6.72;2.88;;;14.00;85.80;;;;;;5094921;28;20036;-61
2023/04/26 12:38:28;;;;;;;6.70;2.60;;;14.00;85.50;;;;;;5094937;28;20079;-64
2023/04/26 12:40:55;;;;;;;9.35;2.70;;;14.00;86.50;;;;;;5094854;28;20486;-62
2023/04/26 12:43:24;;;;;;;7.32;2.47;;;14.00;86.50;;;;;;5094372;28;20040;-63
2023/04/26 12:45:51;;;;;;;7.53;2.55;;;14.10;86.20;;;;;;5092454;28;20479;-61
2023/04/26 12:48:18;;;;;;;8.18;2.58;;;14.20;87.10;;;;;;5094318;28;20040;-61
2023/04/26 12:50:45;;;;;;;7.00;2.45;;;14.40;87.30;;;;;;5094254;28;20433;-63